sensor_id;sensor_type;location;lat;lon;timestamp;pressure;altitude;pressure_sealevel;temperature;humidity
4133;BME280;2080;51.038;7.008;2022-09-30T00:00:07;76203.81;;;-142.53;100.00
4133;BME280;2080;51.038;7.008;2022-09-30T00:02:33;76225.16;;;-142.53;100.00
4133;BME280;2080;51.038;7.008;2022-09-30T00:05:03;76219.34;;;-142.53;100.00
4133;BME280;2080;51.038;7.008;2022-09-30T00:07:29;76234.88;;;-142.53;100.00
4133;BME280;2080;51.038;7.008;2022-09-30T00:09:54;76234.88;;;-142.53;100.00
4133;BME280;2080;51.038;7.008;2022-09-30T00:12:19;76232.94;;;-142.53;100.00
4133;BME280;2080;51.038;7.008;2022-09-30T00:14:45;76234.88;;;-142.53;100.00
4133;BME280;2080;51.038;7.008;2022-09-30T00:17:10;76238.78;;;-142.53;100.00
4133;BME280;2080;51.038;7.008;2022-09-30T00:19:36;76238.78;;;-142.53;100.00
4133;BME280;2080;51.038;7.008;2022-09-30T00:22:03;76250.41;;;-142.53;100.00
4133;BME280;2080;51.038;7.008;2022-09-30T00:24:31;76232.94;;;-142.53;100.00
4133;BME280;2080;51.038;7.008;2022-09-30T00:26:57;76234.88;;;-142.53;100.00
4133;BME280;2080;51.038;7.008;2022-09-30T00:29:22;76246.53;;;-142.53;100.00
4133;BME280;2080;51.038;7.008;2022-09-30T00:31:48;76246.53;;;-142.53;100.00
4133;BME280;2080;51.038;7.008;2022-09-30T00:34:15;76246.53;;;-142.53;100.00
4133;BME280;2080;51.038;7.008;2022-09-30T00:36:50;76256.25;;;-142.53;100.00
4133;BME280;2080;51.038;7.008;2022-09-30T00:39:19;76260.13;;;-142.53;100.00
4133;BME280;2080;51.038;7.008;2022-09-30T00:41:52;76262.06;;;-142.53;100.00
4133;BME280;2080;51.038;7.008;2022-09-30T00:49:58;76277.63;;;-142.53;100.00
4133;BME280;2080;51.038;7.008;2022-09-30T00:52:26;76279.56;;;-142.53;100.00
4133;BME280;2080;51.038;7.008;2022-09-30T00:54:52;76285.38;;;-142.53;100.00
4133;BME280;2080;51.038;7.008;2022-09-30T00:57:19;76297.03;;;-142.53;100.00
4133;BME280;2080;51.038;7.008;2022-09-30T00:59:47;76287.31;;;-142.53;100.00
4133;BME280;2080;51.038;7.008;2022-09-30T01:02:16;76300.91;;;-142.53;100.00
4133;BME280;2080;51.038;7.008;2022-09-30T01:04:43;76302.88;;;-142.53;100.00
4133;BME280;2080;51.038;7.008;2022-09-30T01:07:09;76300.91;;;-142.53;100.00
4133;BME280;2080;51.038;7.008;2022-09-30T01:09:38;76298.97;;;-142.53;100.00
4133;BME280;2080;51.038;7.008;2022-09-30T01:12:11;76295.09;;;-142.53;100.00
4133;BME280;2080;51.038;7.008;2022-09-30T01:14:42;76308.69;;;-142.53;100.00
4133;BME280;2080;51.038;7.008;2022-09-30T01:17:23;76298.97;;;-142.53;100.00
4133;BME280;2080;51.038;7.008;2022-09-30T01:33:42;76314.50;;;-142.53;100.00
4133;BME280;2080;51.038;7.008;2022-09-30T01:36:19;76308.69;;;-142.53;100.00
4133;BME280;2080;51.038;7.008;2022-09-30T01:44:43;76314.50;;;-142.53;100.00
4133;BME280;2080;51.038;7.008;2022-09-30T01:47:18;76308.69;;;-142.53;100.00
4133;BME280;2080;51.038;7.008;2022-09-30T01:52:50;76312.56;;;-142.53;100.00
4133;BME280;2080;51.038;7.008;2022-09-30T01:55:26;76316.47;;;-142.53;100.00
4133;BME280;2080;51.038;7.008;2022-09-30T01:58:15;76320.34;;;-142.53;100.00
4133;BME280;2080;51.038;7.008;2022-09-30T02:00:48;76328.13;;;-142.53;100.00
4133;BME280;2080;51.038;7.008;2022-09-30T02:03:25;76332.00;;;-142.53;100.00
4133;BME280;2080;51.038;7.008;2022-09-30T02:05:57;76335.88;;;-142.53;100.00
4133;BME280;2080;51.038;7.008;2022-09-30T02:09:06;76332.00;;;-142.53;100.00
4133;BME280;2080;51.038;7.008;2022-09-30T02:11:34;76335.88;;;-142.53;100.00
4133;BME280;2080;51.038;7.008;2022-09-30T02:16:36;76330.06;;;-142.53;100.00
4133;BME280;2080;51.038;7.008;2022-09-30T02:21:39;76335.88;;;-142.53;100.00
4133;BME280;2080;51.038;7.008;2022-09-30T02:24:09;76339.75;;;-142.53;100.00
4133;BME280;2080;51.038;7.008;2022-09-30T02:26:39;76335.88;;;-142.53;100.00
4133;BME280;2080;51.038;7.008;2022-09-30T02:29:10;76332.00;;;-142.53;100.00
4133;BME280;2080;51.038;7.008;2022-09-30T02:31:39;76324.22;;;-142.53;100.00
4133;BME280;2080;51.038;7.008;2022-09-30T02:34:14;76333.94;;;-142.53;100.00
4133;BME280;2080;51.038;7.008;2022-09-30T02:37:00;76339.75;;;-142.53;100.00
4133;BME280;2080;51.038;7.008;2022-09-30T02:39:41;76351.41;;;-142.53;100.00
4133;BME280;2080;51.038;7.008;2022-09-30T02:42:17;76374.72;;;-142.53;100.00
4133;BME280;2080;51.038;7.008;2022-09-30T02:44:47;76386.38;;;-142.53;100.00
4133;BME280;2080;51.038;7.008;2022-09-30T02:51:00;76386.38;;;-142.53;100.00
4133;BME280;2080;51.038;7.008;2022-09-30T02:58:54;76399.97;;;-142.53;100.00
4133;BME280;2080;51.038;7.008;2022-09-30T03:01:21;76413.56;;;-142.53;100.00
4133;BME280;2080;51.038;7.008;2022-09-30T03:03:52;76398.03;;;-142.53;100.00
4133;BME280;2080;51.038;7.008;2022-09-30T03:06:19;76411.63;;;-142.53;100.00
4133;BME280;2080;51.038;7.008;2022-09-30T03:08:47;76417.47;;;-142.53;100.00
4133;BME280;2080;51.038;7.008;2022-09-30T03:11:18;76413.56;;;-142.53;100.00
4133;BME280;2080;51.038;7.008;2022-09-30T03:24:34;76429.13;;;-142.53;100.00
4133;BME280;2080;51.038;7.008;2022-09-30T03:30:03;76394.16;;;-142.53;100.00
4133;BME280;2080;51.038;7.008;2022-09-30T03:40:59;76436.88;;;-142.53;100.00
4133;BME280;2080;51.038;7.008;2022-09-30T03:46:23;76462.13;;;-142.53;100.00
4133;BME280;2080;51.038;7.008;2022-09-30T03:48:54;76460.19;;;-142.53;100.00
4133;BME280;2080;51.038;7.008;2022-09-30T03:51:22;76466.03;;;-142.53;100.00
4133;BME280;2080;51.038;7.008;2022-09-30T03:53:49;76466.03;;;-142.53;100.00
4133;BME280;2080;51.038;7.008;2022-09-30T03:56:29;76456.31;;;-142.53;100.00
4133;BME280;2080;51.038;7.008;2022-09-30T03:58:56;76458.25;;;-142.53;100.00
4133;BME280;2080;51.038;7.008;2022-09-30T04:01:22;76456.31;;;-142.53;100.00
4133;BME280;2080;51.038;7.008;2022-09-30T04:03:51;76460.19;;;-142.53;100.00
4133;BME280;2080;51.038;7.008;2022-09-30T04:06:19;76460.19;;;-142.53;100.00
4133;BME280;2080;51.038;7.008;2022-09-30T04:08:44;76464.06;;;-142.53;100.00
4133;BME280;2080;51.038;7.008;2022-09-30T04:11:10;76460.19;;;-142.53;100.00
4133;BME280;2080;51.038;7.008;2022-09-30T04:13:36;76467.97;;;-142.53;100.00
4133;BME280;2080;51.038;7.008;2022-09-30T04:16:02;76466.03;;;-142.53;100.00
4133;BME280;2080;51.038;7.008;2022-09-30T04:18:28;76458.25;;;-142.53;100.00
4133;BME280;2080;51.038;7.008;2022-09-30T04:20:57;76448.53;;;-142.53;100.00
4133;BME280;2080;51.038;7.008;2022-09-30T04:23:23;76448.53;;;-142.53;100.00
4133;BME280;2080;51.038;7.008;2022-09-30T04:25:53;76452.41;;;-142.53;100.00
4133;BME280;2080;51.038;7.008;2022-09-30T04:28:18;76460.19;;;-142.53;100.00
4133;BME280;2080;51.038;7.008;2022-09-30T04:30:44;76456.31;;;-142.53;100.00
4133;BME280;2080;51.038;7.008;2022-09-30T04:33:09;76464.06;;;-142.53;100.00
4133;BME280;2080;51.038;7.008;2022-09-30T04:35:36;76448.53;;;-142.53;100.00
4133;BME280;2080;51.038;7.008;2022-09-30T04:38:01;76466.03;;;-142.53;100.00
4133;BME280;2080;51.038;7.008;2022-09-30T04:40:30;76475.72;;;-142.53;100.00
4133;BME280;2080;51.038;7.008;2022-09-30T04:42:56;76471.84;;;-142.53;100.00
4133;BME280;2080;51.038;7.008;2022-09-30T04:45:22;76493.22;;;-142.53;100.00
4133;BME280;2080;51.038;7.008;2022-09-30T04:47:48;76491.28;;;-142.53;100.00
4133;BME280;2080;51.038;7.008;2022-09-30T04:50:16;76499.03;;;-142.53;100.00
4133;BME280;2080;51.038;7.008;2022-09-30T04:52:44;76504.88;;;-142.53;100.00
4133;BME280;2080;51.038;7.008;2022-09-30T04:55:12;76502.91;;;-142.53;100.00
4133;BME280;2080;51.038;7.008;2022-09-30T04:57:37;76510.69;;;-142.53;100.00
4133;BME280;2080;51.038;7.008;2022-09-30T05:00:03;76514.56;;;-142.53;100.00
4133;BME280;2080;51.038;7.008;2022-09-30T05:02:31;76526.22;;;-142.53;100.00
4133;BME280;2080;51.038;7.008;2022-09-30T05:04:57;76534.00;;;-142.53;100.00
4133;BME280;2080;51.038;7.008;2022-09-30T05:07:22;76530.13;;;-142.53;100.00
4133;BME280;2080;51.038;7.008;2022-09-30T05:09:47;76528.19;;;-142.53;100.00
4133;BME280;2080;51.038;7.008;2022-09-30T05:12:13;76506.81;;;-142.53;100.00
4133;BME280;2080;51.038;7.008;2022-09-30T05:14:43;76499.03;;;-142.53;100.00
4133;BME280;2080;51.038;7.008;2022-09-30T05:17:08;76506.81;;;-142.53;100.00
4133;BME280;2080;51.038;7.008;2022-09-30T05:19:37;76506.81;;;-142.53;100.00
4133;BME280;2080;51.038;7.008;2022-09-30T05:22:02;76506.81;;;-142.53;100.00
4133;BME280;2080;51.038;7.008;2022-09-30T05:24:27;76510.69;;;-142.53;100.00
4133;BME280;2080;51.038;7.008;2022-09-30T05:26:55;76499.03;;;-142.53;100.00
4133;BME280;2080;51.038;7.008;2022-09-30T05:29:20;76502.91;;;-142.53;100.00
4133;BME280;2080;51.038;7.008;2022-09-30T05:31:50;76495.16;;;-142.53;100.00
4133;BME280;2080;51.038;7.008;2022-09-30T05:34:18;76483.50;;;-142.53;100.00
4133;BME280;2080;51.038;7.008;2022-09-30T05:36:45;76499.03;;;-142.53;100.00
4133;BME280;2080;51.038;7.008;2022-09-30T05:39:11;76499.03;;;-142.53;100.00
4133;BME280;2080;51.038;7.008;2022-09-30T05:41:36;76495.16;;;-142.53;100.00
4133;BME280;2080;51.038;7.008;2022-09-30T05:44:02;76487.38;;;-142.53;100.00
4133;BME280;2080;51.038;7.008;2022-09-30T05:46:28;76502.91;;;-142.53;100.00
4133;BME280;2080;51.038;7.008;2022-09-30T05:48:56;76522.34;;;-142.53;100.00
4133;BME280;2080;51.038;7.008;2022-09-30T05:51:21;76545.66;;;-142.53;100.00
4133;BME280;2080;51.038;7.008;2022-09-30T05:53:47;76545.66;;;-142.53;100.00
4133;BME280;2080;51.038;7.008;2022-09-30T05:56:12;76541.78;;;-142.53;100.00
4133;BME280;2080;51.038;7.008;2022-09-30T05:58:41;76543.72;;;-142.53;100.00
4133;BME280;2080;51.038;7.008;2022-09-30T06:01:09;76526.22;;;-142.53;100.00
4133;BME280;2080;51.038;7.008;2022-09-30T06:03:42;76524.28;;;-142.53;100.00
4133;BME280;2080;51.038;7.008;2022-09-30T06:06:09;76528.19;;;-142.53;100.00
4133;BME280;2080;51.038;7.008;2022-09-30T06:08:34;76526.22;;;-142.53;100.00
4133;BME280;2080;51.038;7.008;2022-09-30T06:11:00;76510.69;;;-142.53;100.00
4133;BME280;2080;51.038;7.008;2022-09-30T06:13:27;76502.91;;;-142.53;100.00
4133;BME280;2080;51.038;7.008;2022-09-30T06:15:57;76487.38;;;-142.53;100.00
4133;BME280;2080;51.038;7.008;2022-09-30T06:18:23;76471.84;;;-142.53;100.00
4133;BME280;2080;51.038;7.008;2022-09-30T06:20:50;76469.91;;;-142.53;100.00
4133;BME280;2080;51.038;7.008;2022-09-30T06:23:18;76444.66;;;-142.53;100.00
4133;BME280;2080;51.038;7.008;2022-09-30T06:25:44;76448.53;;;-142.53;100.00
4133;BME280;2080;51.038;7.008;2022-09-30T06:28:10;76440.78;;;-142.53;100.00
4133;BME280;2080;51.038;7.008;2022-09-30T06:30:36;76433.00;;;-142.53;100.00
4133;BME280;2080;51.038;7.008;2022-09-30T06:33:01;76429.13;;;-142.53;100.00
4133;BME280;2080;51.038;7.008;2022-09-30T06:35:26;76413.56;;;-142.53;100.00
4133;BME280;2080;51.038;7.008;2022-09-30T06:37:53;76409.69;;;-142.53;100.00
4133;BME280;2080;51.038;7.008;2022-09-30T06:40:19;76415.53;;;-142.53;100.00
4133;BME280;2080;51.038;7.008;2022-09-30T06:42:47;76405.81;;;-142.53;100.00
4133;BME280;2080;51.038;7.008;2022-09-30T06:45:13;76409.69;;;-142.53;100.00
4133;BME280;2080;51.038;7.008;2022-09-30T06:47:41;76401.91;;;-142.53;100.00
4133;BME280;2080;51.038;7.008;2022-09-30T06:50:07;76401.91;;;-142.53;100.00
4133;BME280;2080;51.038;7.008;2022-09-30T06:52:32;76392.22;;;-142.53;100.00
4133;BME280;2080;51.038;7.008;2022-09-30T06:54:58;76386.38;;;-142.53;100.00
4133;BME280;2080;51.038;7.008;2022-09-30T06:57:24;76366.97;;;-142.53;100.00
4133;BME280;2080;51.038;7.008;2022-09-30T06:59:52;76365.00;;;-142.53;100.00
4133;BME280;2080;51.038;7.008;2022-09-30T07:02:17;76359.19;;;-142.53;100.00
4133;BME280;2080;51.038;7.008;2022-09-30T07:04:45;76332.00;;;-142.53;100.00
4133;BME280;2080;51.038;7.008;2022-09-30T07:07:11;76328.13;;;-142.53;100.00
4133;BME280;2080;51.038;7.008;2022-09-30T07:09:36;76316.47;;;-142.53;100.00
4133;BME280;2080;51.038;7.008;2022-09-30T07:12:02;76314.50;;;-142.53;100.00
4133;BME280;2080;51.038;7.008;2022-09-30T07:14:28;76306.75;;;-142.53;100.00
4133;BME280;2080;51.038;7.008;2022-09-30T07:16:55;76291.22;;;-142.53;100.00
4133;BME280;2080;51.038;7.008;2022-09-30T07:19:23;76273.72;;;-142.53;100.00
4133;BME280;2080;51.038;7.008;2022-09-30T07:21:51;76264.03;;;-142.53;100.00
4133;BME280;2080;51.038;7.008;2022-09-30T07:24:17;76269.84;;;-142.53;100.00
4133;BME280;2080;51.038;7.008;2022-09-30T07:26:42;76265.97;;;-142.53;100.00
4133;BME280;2080;51.038;7.008;2022-09-30T07:29:10;76260.13;;;-142.53;100.00
4133;BME280;2080;51.038;7.008;2022-09-30T07:31:37;76254.31;;;-142.53;100.00
4133;BME280;2080;51.038;7.008;2022-09-30T07:34:04;76240.72;;;-142.53;100.00
4133;BME280;2080;51.038;7.008;2022-09-30T07:36:34;76238.78;;;-142.53;100.00
4133;BME280;2080;51.038;7.008;2022-09-30T07:39:01;76229.06;;;-142.53;100.00
4133;BME280;2080;51.038;7.008;2022-09-30T07:41:29;76238.78;;;-142.53;100.00
4133;BME280;2080;51.038;7.008;2022-09-30T07:43:56;76227.13;;;-142.53;100.00
4133;BME280;2080;51.038;7.008;2022-09-30T07:46:31;76211.56;;;-142.53;100.00
4133;BME280;2080;51.038;7.008;2022-09-30T07:48:59;76207.69;;;-142.53;100.00
4133;BME280;2080;51.038;7.008;2022-09-30T07:51:35;76192.16;;;-142.53;100.00
4133;BME280;2080;51.038;7.008;2022-09-30T07:54:05;76176.63;;;-142.53;100.00
4133;BME280;2080;51.038;7.008;2022-09-30T07:56:32;76172.72;;;-142.53;100.00
4133;BME280;2080;51.038;7.008;2022-09-30T07:59:01;76161.09;;;-142.53;100.00
4133;BME280;2080;51.038;7.008;2022-09-30T08:01:27;76145.53;;;-142.53;100.00
4133;BME280;2080;51.038;7.008;2022-09-30T08:03:57;76133.88;;;-142.53;100.00
4133;BME280;2080;51.038;7.008;2022-09-30T08:06:23;76126.13;;;-142.53;100.00
4133;BME280;2080;51.038;7.008;2022-09-30T08:08:52;76110.59;;;-142.53;100.00
4133;BME280;2080;51.038;7.008;2022-09-30T08:11:20;76108.63;;;-142.53;100.00
4133;BME280;2080;51.038;7.008;2022-09-30T08:13:50;76087.28;;;-142.53;100.00
4133;BME280;2080;51.038;7.008;2022-09-30T08:16:16;76087.28;;;-142.53;100.00
4133;BME280;2080;51.038;7.008;2022-09-30T08:18:42;76067.84;;;-142.53;100.00
4133;BME280;2080;51.038;7.008;2022-09-30T08:21:07;76046.50;;;-142.53;100.00
4133;BME280;2080;51.038;7.008;2022-09-30T08:23:35;76036.78;;;-142.53;100.00
4133;BME280;2080;51.038;7.008;2022-09-30T08:26:10;75996.00;;;-142.53;100.00
4133;BME280;2080;51.038;7.008;2022-09-30T08:28:36;75994.06;;;-142.53;100.00
4133;BME280;2080;51.038;7.008;2022-09-30T08:31:13;75964.91;;;-142.53;100.00
4133;BME280;2080;51.038;7.008;2022-09-30T08:33:42;75962.97;;;-142.53;100.00
4133;BME280;2080;51.038;7.008;2022-09-30T08:36:10;75941.63;;;-142.53;100.00
4133;BME280;2080;51.038;7.008;2022-09-30T08:38:37;75933.84;;;-142.53;100.00
4133;BME280;2080;51.038;7.008;2022-09-30T08:52:37;75856.16;;;-142.53;100.00
4133;BME280;2080;51.038;7.008;2022-09-30T08:55:06;75832.88;;;-142.53;100.00
4133;BME280;2080;51.038;7.008;2022-09-30T08:57:37;75788.19;;;-142.53;100.00
4133;BME280;2080;51.038;7.008;2022-09-30T09:00:05;75759.06;;;-142.53;100.00
4133;BME280;2080;51.038;7.008;2022-09-30T09:08:20;75694.97;;;-142.53;100.00
4133;BME280;2080;51.038;7.008;2022-09-30T09:11:02;75683.34;;;-142.53;100.00
4133;BME280;2080;51.038;7.008;2022-09-30T09:13:49;75660.03;;;-142.53;100.00
4133;BME280;2080;51.038;7.008;2022-09-30T09:19:14;75621.19;;;-142.53;100.00
4133;BME280;2080;51.038;7.008;2022-09-30T09:21:54;75627.00;;;-142.53;100.00
4133;BME280;2080;51.038;7.008;2022-09-30T09:24:32;75644.50;;;-142.53;100.00
4133;BME280;2080;51.038;7.008;2022-09-30T09:27:20;75621.19;;;-142.53;100.00
4133;BME280;2080;51.038;7.008;2022-09-30T09:30:18;75597.88;;;-142.53;100.00
4133;BME280;2080;51.038;7.008;2022-09-30T09:32:51;75586.25;;;-142.53;100.00
4133;BME280;2080;51.038;7.008;2022-09-30T09:44:04;75527.97;;;-142.53;100.00
4133;BME280;2080;51.038;7.008;2022-09-30T09:54:24;75450.31;;;-142.53;100.00
4133;BME280;2080;51.038;7.008;2022-09-30T09:56:53;75419.25;;;-142.53;100.00
4133;BME280;2080;51.038;7.008;2022-09-30T09:59:19;75415.34;;;-142.53;100.00
4133;BME280;2080;51.038;7.008;2022-09-30T10:01:51;75430.88;;;-142.53;100.00
4133;BME280;2080;51.038;7.008;2022-09-30T10:04:26;75417.28;;;-142.53;100.00
4133;BME280;2080;51.038;7.008;2022-09-30T10:06:59;75394.00;;;-142.53;100.00
4133;BME280;2080;51.038;7.008;2022-09-30T10:12:40;75349.34;;;-142.53;100.00
4133;BME280;2080;51.038;7.008;2022-09-30T10:15:21;75343.50;;;-142.53;100.00
4133;BME280;2080;51.038;7.008;2022-09-30T10:17:52;75322.16;;;-142.53;100.00
4133;BME280;2080;51.038;7.008;2022-09-30T10:20:31;75302.72;;;-142.53;100.00
4133;BME280;2080;51.038;7.008;2022-09-30T10:23:18;75281.38;;;-142.53;100.00
4133;BME280;2080;51.038;7.008;2022-09-30T10:28:29;75291.09;;;-142.53;100.00
4133;BME280;2080;51.038;7.008;2022-09-30T10:31:25;75244.47;;;-142.53;100.00
4133;BME280;2080;51.038;7.008;2022-09-30T10:34:39;75236.72;;;-142.53;100.00
4133;BME280;2080;51.038;7.008;2022-09-30T10:36:41;75232.84;;;-142.53;100.00
4133;BME280;2080;51.038;7.008;2022-09-30T10:41:41;75215.34;;;-142.53;100.00
4133;BME280;2080;51.038;7.008;2022-09-30T10:44:15;75215.34;;;-142.53;100.00
4133;BME280;2080;51.038;7.008;2022-09-30T10:46:44;75194.00;;;-142.53;100.00
4133;BME280;2080;51.038;7.008;2022-09-30T10:49:30;75161.00;;;-142.53;100.00
4133;BME280;2080;51.038;7.008;2022-09-30T10:52:00;75166.81;;;-142.53;100.00
4133;BME280;2080;51.038;7.008;2022-09-30T10:54:48;75127.97;;;-142.53;100.00
4133;BME280;2080;51.038;7.008;2022-09-30T10:57:22;75139.63;;;-142.53;100.00
4133;BME280;2080;51.038;7.008;2022-09-30T10:59:49;75137.69;;;-142.53;100.00
4133;BME280;2080;51.038;7.008;2022-09-30T11:05:17;75110.50;;;-142.53;100.00
4133;BME280;2080;51.038;7.008;2022-09-30T11:13:36;75108.56;;;-142.53;100.00
4133;BME280;2080;51.038;7.008;2022-09-30T11:19:04;75079.44;;;-142.53;100.00
4133;BME280;2080;51.038;7.008;2022-09-30T11:37:32;75030.91;;;-142.53;88.89
4133;BME280;2080;51.038;7.008;2022-09-30T11:51:18;74964.88;;;-142.53;100.00
4133;BME280;2080;51.038;7.008;2022-09-30T11:57:01;74918.28;;;-142.53;100.00
4133;BME280;2080;51.038;7.008;2022-09-30T11:59:35;74906.66;;;-142.53;100.00
4133;BME280;2080;51.038;7.008;2022-09-30T12:02:25;74887.22;;;-142.53;100.00
4133;BME280;2080;51.038;7.008;2022-09-30T12:04:55;74867.81;;;-142.53;100.00
4133;BME280;2080;51.038;7.008;2022-09-30T12:07:45;74813.47;;;-142.53;100.00
4133;BME280;2080;51.038;7.008;2022-09-30T12:10:28;74813.47;;;-142.53;94.42
4133;BME280;2080;51.038;7.008;2022-09-30T12:13:03;74790.16;;;-142.53;100.00
4133;BME280;2080;51.038;7.008;2022-09-30T12:15:31;74809.56;;;-142.53;100.00
4133;BME280;2080;51.038;7.008;2022-09-30T12:18:09;74794.03;;;-142.53;100.00
4133;BME280;2080;51.038;7.008;2022-09-30T12:20:45;74817.34;;;-142.53;100.00
4133;BME280;2080;51.038;7.008;2022-09-30T12:48:25;74636.78;;;-142.53;81.94
4133;BME280;2080;51.038;7.008;2022-09-30T12:50:54;74615.44;;;-142.53;84.71
4133;BME280;2080;51.038;7.008;2022-09-30T12:53:28;74594.09;;;-142.53;81.87
4133;BME280;2080;51.038;7.008;2022-09-30T12:56:03;74576.59;;;-142.53;78.09
4133;BME280;2080;51.038;7.008;2022-09-30T12:58:33;74578.56;;;-142.53;70.35
4133;BME280;2080;51.038;7.008;2022-09-30T13:03:51;74603.78;;;-142.53;60.65
4133;BME280;2080;51.038;7.008;2022-09-30T13:06:20;74621.25;;;-142.53;57.74
4133;BME280;2080;51.038;7.008;2022-09-30T13:11:32;74599.91;;;-142.53;63.19
4133;BME280;2080;51.038;7.008;2022-09-30T13:14:11;74592.13;;;-142.53;59.06
4133;BME280;2080;51.038;7.008;2022-09-30T13:16:59;74592.13;;;-142.53;52.62
4133;BME280;2080;51.038;7.008;2022-09-30T13:19:52;74592.13;;;-142.53;46.98
4133;BME280;2080;51.038;7.008;2022-09-30T13:25:11;74605.72;;;-142.53;47.60
4133;BME280;2080;51.038;7.008;2022-09-30T13:43:17;74592.13;;;-142.53;46.89
4133;BME280;2080;51.038;7.008;2022-09-30T13:45:48;74596.03;;;-142.53;45.32
4133;BME280;2080;51.038;7.008;2022-09-30T13:48:28;74599.91;;;-142.53;44.51
4133;BME280;2080;51.038;7.008;2022-09-30T13:50:59;74576.59;;;-142.53;45.63
4133;BME280;2080;51.038;7.008;2022-09-30T13:53:43;74603.78;;;-142.53;44.23
4133;BME280;2080;51.038;7.008;2022-09-30T13:56:18;74599.91;;;-142.53;45.60
4133;BME280;2080;51.038;7.008;2022-09-30T14:22:45;74580.50;;;-142.53;43.64
4133;BME280;2080;51.038;7.008;2022-09-30T14:25:15;74588.25;;;-142.53;42.88
4133;BME280;2080;51.038;7.008;2022-09-30T14:30:17;74634.84;;;-142.53;42.83
4133;BME280;2080;51.038;7.008;2022-09-30T14:35:32;74667.84;;;-142.53;42.59
4133;BME280;2080;51.038;7.008;2022-09-30T14:38:01;74642.63;;;-142.53;42.77
4133;BME280;2080;51.038;7.008;2022-09-30T14:40:39;74629.03;;;-142.53;41.98
4133;BME280;2080;51.038;7.008;2022-09-30T14:43:12;74601.84;;;-142.53;42.58
4133;BME280;2080;51.038;7.008;2022-09-30T14:45:42;74592.13;;;-142.53;42.20
4133;BME280;2080;51.038;7.008;2022-09-30T14:48:12;74596.03;;;-142.53;41.60
4133;BME280;2080;51.038;7.008;2022-09-30T14:50:48;74561.06;;;-142.53;40.83
4133;BME280;2080;51.038;7.008;2022-09-30T14:55:56;74545.56;;;-142.53;41.46
4133;BME280;2080;51.038;7.008;2022-09-30T15:03:29;74685.31;;;-142.53;41.78
4133;BME280;2080;51.038;7.008;2022-09-30T15:05:56;74724.16;;;-142.53;41.17
4133;BME280;2080;51.038;7.008;2022-09-30T15:08:23;74759.09;;;-142.53;42.62
4133;BME280;2080;51.038;7.008;2022-09-30T15:10:53;74774.63;;;-142.53;42.62
4133;BME280;2080;51.038;7.008;2022-09-30T15:13:23;74766.88;;;-142.53;43.23
4133;BME280;2080;51.038;7.008;2022-09-30T15:15:49;74770.75;;;-142.53;41.57
4133;BME280;2080;51.038;7.008;2022-09-30T15:20:46;74745.50;;;-142.53;43.04
4133;BME280;2080;51.038;7.008;2022-09-30T15:23:23;74735.81;;;-142.53;43.29
4133;BME280;2080;51.038;7.008;2022-09-30T15:25:48;74747.44;;;-142.53;41.94
4133;BME280;2080;51.038;7.008;2022-09-30T15:28:17;74735.81;;;-142.53;43.31
4133;BME280;2080;51.038;7.008;2022-09-30T15:30:42;74743.56;;;-142.53;43.53
4133;BME280;2080;51.038;7.008;2022-09-30T15:33:18;74782.41;;;-142.53;43.95
4133;BME280;2080;51.038;7.008;2022-09-30T15:35:44;74778.50;;;-142.53;43.40
4133;BME280;2080;51.038;7.008;2022-09-30T15:38:22;74762.97;;;-142.53;44.21
4133;BME280;2080;51.038;7.008;2022-09-30T15:40:57;74762.97;;;-142.53;43.35
4133;BME280;2080;51.038;7.008;2022-09-30T15:44:13;74743.56;;;-142.53;43.28
4133;BME280;2080;51.038;7.008;2022-09-30T15:46:32;74747.44;;;-142.53;43.52
4133;BME280;2080;51.038;7.008;2022-09-30T15:49:04;74770.75;;;-142.53;43.62
4133;BME280;2080;51.038;7.008;2022-09-30T15:54:34;74782.41;;;-142.53;44.59
4133;BME280;2080;51.038;7.008;2022-09-30T15:56:53;74792.09;;;-142.53;44.45
4133;BME280;2080;51.038;7.008;2022-09-30T15:59:18;74794.03;;;-142.53;45.36
4133;BME280;2080;51.038;7.008;2022-09-30T16:01:51;74782.41;;;-142.53;45.53
4133;BME280;2080;51.038;7.008;2022-09-30T16:04:22;74770.75;;;-142.53;45.57
4133;BME280;2080;51.038;7.008;2022-09-30T16:14:52;74829.00;;;-142.53;45.49
4133;BME280;2080;51.038;7.008;2022-09-30T16:17:34;74848.41;;;-142.53;45.39
4133;BME280;2080;51.038;7.008;2022-09-30T16:20:05;74887.22;;;-142.53;45.15
4133;BME280;2080;51.038;7.008;2022-09-30T16:28:08;74879.47;;;-142.53;45.98
4133;BME280;2080;51.038;7.008;2022-09-30T16:30:48;74891.13;;;-142.53;45.58
4133;BME280;2080;51.038;7.008;2022-09-30T16:33:15;74918.28;;;-142.53;46.71
4133;BME280;2080;51.038;7.008;2022-09-30T16:35:47;74949.38;;;-142.53;47.60
4133;BME280;2080;51.038;7.008;2022-09-30T16:38:14;74982.38;;;-142.53;48.09
4133;BME280;2080;51.038;7.008;2022-09-30T16:40:40;75007.59;;;-142.53;47.90
4133;BME280;2080;51.038;7.008;2022-09-30T16:43:08;75019.25;;;-142.53;49.15
4133;BME280;2080;51.038;7.008;2022-09-30T16:45:36;75042.56;;;-142.53;49.48
4133;BME280;2080;51.038;7.008;2022-09-30T16:48:07;75054.19;;;-142.53;50.84
4133;BME280;2080;51.038;7.008;2022-09-30T16:50:49;75069.75;;;-142.53;52.30
4133;BME280;2080;51.038;7.008;2022-09-30T16:53:19;75085.28;;;-142.53;52.73
4133;BME280;2080;51.038;7.008;2022-09-30T16:55:47;75096.91;;;-142.53;53.76
4133;BME280;2080;51.038;7.008;2022-09-30T16:58:12;75110.50;;;-142.53;54.86
4133;BME280;2080;51.038;7.008;2022-09-30T17:00:41;75116.34;;;-142.53;55.35
4133;BME280;2080;51.038;7.008;2022-09-30T17:03:13;75127.97;;;-142.53;55.29
4133;BME280;2080;51.038;7.008;2022-09-30T17:05:42;75131.88;;;-142.53;55.75
4133;BME280;2080;51.038;7.008;2022-09-30T17:08:12;75135.75;;;-142.53;56.08
4133;BME280;2080;51.038;7.008;2022-09-30T17:10:38;75141.56;;;-142.53;56.43
4133;BME280;2080;51.038;7.008;2022-09-30T17:13:04;75151.28;;;-142.53;57.12
4133;BME280;2080;51.038;7.008;2022-09-30T17:15:31;75162.94;;;-142.53;57.62
4133;BME280;2080;51.038;7.008;2022-09-30T17:17:57;75182.34;;;-142.53;58.48
4133;BME280;2080;51.038;7.008;2022-09-30T17:20:25;75194.00;;;-142.53;59.62
4133;BME280;2080;51.038;7.008;2022-09-30T17:22:55;75201.75;;;-142.53;60.39
4133;BME280;2080;51.038;7.008;2022-09-30T17:25:23;75213.41;;;-142.53;61.41
4133;BME280;2080;51.038;7.008;2022-09-30T17:27:48;75221.19;;;-142.53;62.91